Time;durP1;ratioP1;P1;durP2;ratioP2;P2;SDS_P1;SDS_P2;PMS_P1;PMS_P2;Temp;Humidity;BMP_temperature;BMP_pressure;BME280_temperature;BME280_humidity;BME280_pressure;Samples;Min_cycle;Max_cycle;Signal;HPM_P1;HPM_P2
2023/04/17 18:56:16;;;;;;;14.15;9.85;;;;;;;;;;5018613;27;20591;-45
2023/04/17 18:58:42;;;;;;;14.82;9.65;;;;;;;;;;5015114;28;20258;-46
2023/04/17 19:01:09;;;;;;;15.45;9.23;;;;;;;;;;5009609;28;20189;-49
2023/04/17 19:03:35;;;;;;;12.88;9.20;;;;;;;;;;5009354;28;20455;-50
2023/04/17 19:06:01;;;;;;;16.63;9.32;;;;;;;;;;5011339;28;20487;-54
2023/04/17 19:08:26;;;;;;;14.38;9.10;;;;;;;;;;5011496;28;20272;-43
2023/04/17 19:10:52;;;;;;;16.60;8.90;;;;;;;;;;5010818;28;20185;-48
2023/04/17 19:13:18;;;;;;;21.25;8.43;;;;;;;;;;5010282;28;20596;-45
2023/04/17 19:15:44;;;;;;;179.70;154.63;;;;;;;;;;5010836;28;20212;-43
2023/04/17 19:18:10;;;;;;;138.02;115.82;;;;;;;;;;5011235;28;20180;-40
2023/04/17 19:20:36;;;;;;;250.20;204.52;;;;;;;;;;5010861;28;20467;-49
2023/04/17 19:23:02;;;;;;;384.33;312.33;;;;;;;;;;5011370;28;20259;-51
2023/04/17 19:25:28;;;;;;;402.83;337.35;;;;;;;;;;5009680;28;20639;-44
2023/04/17 19:27:54;;;;;;;387.52;322.75;;;;;;;;;;5010188;28;20189;-48
2023/04/17 19:30:20;;;;;;;382.00;319.88;;;;;;;;;;5010747;28;20269;-48
2023/04/17 19:32:46;;;;;;;372.52;309.98;;;;;;;;;;5010468;28;20552;-48
2023/04/17 19:35:12;;;;;;;364.30;302.35;;;;;;;;;;5010022;28;20682;-44
2023/04/17 19:37:38;;;;;;;357.75;296.67;;;;;;;;;;5011189;28;20192;-48
2023/04/17 19:40:04;;;;;;;812.90;630.95;;;;;;;;;;5010369;28;20207;-41
2023/04/17 19:42:30;;;;;;;407.73;350.98;;;;;;;;;;5010522;28;20308;-50
2023/04/17 19:44:56;;;;;;;596.90;533.78;;;;;;;;;;5007903;28;20271;-47
2023/04/17 19:47:25;;;;;;;610.63;545.70;;;;;;;;;;5010173;28;20312;-43
2023/04/17 19:49:51;;;;;;;637.03;570.35;;;;;;;;;;5009213;28;20181;-43
2023/04/17 19:52:17;;;;;;;636.92;570.70;;;;;;;;;;5007716;28;20235;-40
2023/04/17 19:54:44;;;;;;;617.30;553.05;;;;;;;;;;5008902;28;21121;-41
2023/04/17 19:57:10;;;;;;;605.35;542.28;;;;;;;;;;5008327;28;20176;-45
2023/04/17 19:59:36;;;;;;;595.10;532.60;;;;;;;;;;5009762;28;20235;-45
2023/04/17 20:02:02;;;;;;;591.83;529.92;;;;;;;;;;5009982;28;20189;-57
2023/04/17 20:04:28;;;;;;;580.75;519.63;;;;;;;;;;5009020;28;20219;-49
2023/04/17 20:06:54;;;;;;;568.42;508.10;;;;;;;;;;4999950;28;20270;-48
2023/04/17 20:09:20;;;;;;;564.72;505.15;;;;;;;;;;4997239;28;20182;-38
2023/04/17 20:11:46;;;;;;;556.90;498.40;;;;;;;;;;4995460;28;20247;-39
2023/04/17 20:14:14;;;;;;;555.60;497.05;;;;;;;;;;4997212;28;20240;-41
2023/04/17 20:16:40;;;;;;;546.63;488.70;;;;;;;;;;4995719;28;20590;-51
2023/04/17 20:19:06;;;;;;;466.45;415.50;;;;;;;;;;4996941;28;20193;-51
2023/04/17 20:21:32;;;;;;;403.85;346.38;;;;;;;;;;4997098;28;20485;-51
2023/04/17 20:23:58;;;;;;;366.98;309.20;;;;;;;;;;4997475;28;20485;-51
2023/04/17 20:26:25;;;;;;;308.63;258.88;;;;;;;;;;4994950;28;20186;-51
2023/04/17 20:28:53;;;;;;;260.60;218.82;;;;;;;;;;4996440;28;20185;-50
2023/04/17 20:31:19;;;;;;;253.15;216.88;;;;;;;;;;4997488;28;20185;-50
2023/04/17 20:33:45;;;;;;;256.35;212.73;;;;;;;;;;4996868;28;20195;-50
2023/04/17 20:36:11;;;;;;;243.02;206.65;;;;;;;;;;4996865;28;20300;-50
2023/04/17 20:38:37;;;;;;;235.57;199.00;;;;;;;;;;4996926;28;20185;-50
2023/04/17 20:41:03;;;;;;;235.82;199.98;;;;;;;;;;4988705;28;20185;-50
2023/04/17 20:43:31;;;;;;;233.82;198.52;;;;;;;;;;4996081;28;20212;-50
2023/04/17 20:45:58;;;;;;;227.75;191.35;;;;;;;;;;4995383;28;20188;-50
2023/04/17 20:48:24;;;;;;;222.20;188.55;;;;;;;;;;4996373;28;20185;-50
2023/04/17 20:50:53;;;;;;;223.63;187.15;;;;;;;;;;4996883;28;20271;-50
2023/04/17 20:53:19;;;;;;;219.13;183.32;;;;;;;;;;4995838;28;20308;-50
2023/04/17 20:55:45;;;;;;;209.10;171.63;;;;;;;;;;4995855;28;20539;-51
2023/04/17 20:58:11;;;;;;;208.38;171.77;;;;;;;;;;4996500;28;20220;-51
2023/04/17 21:00:37;;;;;;;205.00;173.20;;;;;;;;;;4996844;28;20572;-50
2023/04/17 21:03:03;;;;;;;207.18;172.90;;;;;;;;;;4995724;28;20239;-51
2023/04/17 21:05:29;;;;;;;194.05;164.88;;;;;;;;;;4995349;28;20185;-50
2023/04/17 21:07:56;;;;;;;196.65;163.02;;;;;;;;;;4995466;28;20184;-50
2023/04/17 21:10:22;;;;;;;192.93;162.15;;;;;;;;;;4994554;28;20199;-51
2023/04/17 21:12:48;;;;;;;186.52;155.70;;;;;;;;;;4995709;28;20553;-50
2023/04/17 21:15:14;;;;;;;182.02;151.88;;;;;;;;;;4995209;28;20213;-50
2023/04/17 21:17:41;;;;;;;176.13;147.52;;;;;;;;;;4994780;28;20177;-51
2023/04/17 21:20:07;;;;;;;176.73;148.07;;;;;;;;;;4995189;28;20182;-50
2023/04/17 21:22:35;;;;;;;171.45;146.02;;;;;;;;;;4995789;28;20177;-50
2023/04/17 21:25:01;;;;;;;168.23;141.18;;;;;;;;;;4994733;28;20193;-50
2023/04/17 21:27:27;;;;;;;175.38;142.68;;;;;;;;;;4993932;28;20215;-50
2023/04/17 21:29:53;;;;;;;168.80;140.50;;;;;;;;;;4996235;28;20480;-50
2023/04/17 21:32:19;;;;;;;163.10;137.20;;;;;;;;;;4995835;28;20195;-51
2023/04/17 21:34:45;;;;;;;163.02;135.05;;;;;;;;;;4994727;28;20247;-50
2023/04/17 21:37:11;;;;;;;160.85;133.05;;;;;;;;;;4994260;28;20504;-50
2023/04/17 21:39:37;;;;;;;148.10;124.88;;;;;;;;;;4995995;28;20177;-50
2023/04/17 21:42:03;;;;;;;153.00;126.00;;;;;;;;;;4994154;28;20193;-50
2023/04/17 21:44:29;;;;;;;151.43;125.55;;;;;;;;;;4995465;28;20173;-50
2023/04/17 21:46:55;;;;;;;151.23;125.32;;;;;;;;;;4993105;28;20181;-50
2023/04/17 21:49:22;;;;;;;143.32;120.50;;;;;;;;;;4996022;28;20239;-50
2023/04/17 21:51:48;;;;;;;148.52;124.47;;;;;;;;;;4995243;28;20181;-51
2023/04/17 21:54:14;;;;;;;136.18;113.95;;;;;;;;;;4994983;28;20216;-51
2023/04/17 21:56:40;;;;;;;133.38;114.78;;;;;;;;;;4994237;28;20676;-51
2023/04/17 21:59:05;;;;;;;130.18;111.55;;;;;;;;;;4995497;28;20470;-51
2023/04/17 22:01:31;;;;;;;129.45;109.65;;;;;;;;;;4994080;28;20482;-51
2023/04/17 22:03:57;;;;;;;135.93;113.03;;;;;;;;;;4994452;28;20185;-50
2023/04/17 22:06:23;;;;;;;127.70;108.05;;;;;;;;;;4994103;28;20520;-50
2023/04/17 22:08:49;;;;;;;122.82;103.43;;;;;;;;;;4993500;28;20185;-51
2023/04/17 22:11:15;;;;;;;124.13;103.75;;;;;;;;;;4994205;28;20248;-50
2023/04/17 22:13:41;;;;;;;115.05;99.18;;;;;;;;;;4994688;28;20212;-50
2023/04/17 22:16:07;;;;;;;118.03;100.07;;;;;;;;;;4992812;28;20531;-50
2023/04/17 22:18:33;;;;;;;114.75;96.28;;;;;;;;;;4994244;28;20272;-50
2023/04/17 22:20:59;;;;;;;109.90;93.68;;;;;;;;;;4994444;28;20208;-50
2023/04/17 22:23:25;;;;;;;109.05;92.43;;;;;;;;;;4995502;28;20260;-50
2023/04/17 22:25:51;;;;;;;110.05;93.93;;;;;;;;;;4993199;28;20505;-50
2023/04/17 22:28:17;;;;;;;105.38;89.80;;;;;;;;;;4995071;28;20195;-50
2023/04/17 22:30:43;;;;;;;106.72;89.03;;;;;;;;;;4993807;28;20185;-50
2023/04/17 22:33:08;;;;;;;101.35;85.65;;;;;;;;;;4994513;28;20264;-51
2023/04/17 22:35:34;;;;;;;101.07;86.25;;;;;;;;;;4993971;28;20482;-50
2023/04/17 22:38:00;;;;;;;99.28;83.55;;;;;;;;;;4994801;28;20174;-51
2023/04/17 22:40:28;;;;;;;95.75;82.10;;;;;;;;;;4993503;28;20572;-50
2023/04/17 22:42:54;;;;;;;95.88;81.60;;;;;;;;;;4993923;28;20188;-51
2023/04/17 22:45:20;;;;;;;94.30;80.93;;;;;;;;;;4994217;28;20181;-50
2023/04/17 22:47:46;;;;;;;87.10;73.50;;;;;;;;;;4993622;28;20192;-50
2023/04/17 22:50:13;;;;;;;90.10;75.95;;;;;;;;;;4994543;28;20457;-50
2023/04/17 22:52:38;;;;;;;88.13;75.43;;;;;;;;;;4994218;28;20451;-50
2023/04/17 22:55:05;;;;;;;90.78;77.85;;;;;;;;;;4993632;28;20220;-50
2023/04/17 22:57:31;;;;;;;87.63;74.63;;;;;;;;;;4993174;28;20570;-50
2023/04/17 22:59:57;;;;;;;85.03;71.38;;;;;;;;;;4994385;28;20185;-50
2023/04/17 23:02:23;;;;;;;83.85;71.30;;;;;;;;;;4992176;28;20214;-50
2023/04/17 23:04:48;;;;;;;82.38;69.97;;;;;;;;;;4993976;28;20557;-50
2023/04/17 23:07:14;;;;;;;82.25;68.78;;;;;;;;;;4992912;28;20188;-50
2023/04/17 23:09:40;;;;;;;80.00;67.50;;;;;;;;;;4993961;28;20185;-50
2023/04/17 23:12:06;;;;;;;82.95;65.18;;;;;;;;;;4993702;28;20753;-50
2023/04/17 23:14:32;;;;;;;75.00;63.30;;;;;;;;;;4973654;28;20204;-51
2023/04/17 23:16:58;;;;;;;72.20;60.25;;;;;;;;;;4990656;28;20188;-51
2023/04/17 23:19:24;;;;;;;72.85;62.05;;;;;;;;;;4994058;28;20178;-51
2023/04/17 23:21:50;;;;;;;74.60;62.38;;;;;;;;;;4994597;28;20492;-51
2023/04/17 23:24:16;;;;;;;70.20;58.97;;;;;;;;;;4993771;28;20491;-51
2023/04/17 23:26:42;;;;;;;70.03;59.45;;;;;;;;;;4993057;28;20181;-51
2023/04/17 23:29:08;;;;;;;68.43;57.40;;;;;;;;;;4993206;28;20189;-51
2023/04/17 23:31:35;;;;;;;66.72;56.60;;;;;;;;;;4994719;28;20612;-51
2023/04/17 23:34:01;;;;;;;66.28;56.58;;;;;;;;;;4993893;28;20196;-51
2023/04/17 23:36:27;;;;;;;65.10;55.17;;;;;;;;;;4992562;28;20519;-51
2023/04/17 23:38:53;;;;;;;65.20;54.15;;;;;;;;;;4993441;28;20204;-51
2023/04/17 23:41:19;;;;;;;63.55;54.08;;;;;;;;;;4995166;28;20278;-51
2023/04/17 23:43:45;;;;;;;63.50;53.35;;;;;;;;;;4996607;28;20177;-51
2023/04/17 23:46:11;;;;;;;62.53;52.53;;;;;;;;;;4997134;28;20457;-51
2023/04/17 23:48:37;;;;;;;58.05;49.75;;;;;;;;;;4997301;28;20223;-51
2023/04/17 23:51:03;;;;;;;57.63;49.33;;;;;;;;;;4997629;28;20216;-51
2023/04/17 23:53:29;;;;;;;55.90;48.25;;;;;;;;;;4995751;28;20212;-51
2023/04/17 23:55:55;;;;;;;56.50;48.83;;;;;;;;;;4997013;28;20213;-51
2023/04/17 23:58:21;;;;;;;53.53;45.88;;;;;;;;;;4997022;28;20212;-51
